Terminal Aerodrome Forecast
Issued by NWS

Home | Current Version | Previous Version | Text Only | Print | Product List | Glossary On
Versions: 1 2 3 4 5 6 7 8 9 10 11 12 13 14 15 16 17 18 19 20
000
FTUS43 KOAX 191720
TAFSNY
TAF
KSNY 191720Z 1918/2018 35025G32KT P6SM SCT050
     FM192300 35017G25KT P6SM SKC
     FM200200 32009KT P6SM SKC=

USA.gov is the U.S. government's official web portal to all federal, state and local government web resources and services.